sensor_id;sensor_type;location;lat;lon;timestamp;P1;durP1;ratioP1;P2;durP2;ratioP2
76846;SDS011;65813;49.546;8.644;2023-04-03T04:17:17;4.13;;;2.20;;
76846;SDS011;65813;49.546;8.644;2023-04-03T04:21:17;5.68;;;2.28;;
76846;SDS011;65813;49.546;8.644;2023-04-03T04:25:18;3.50;;;2.03;;
76846;SDS011;65813;49.546;8.644;2023-04-03T04:29:18;4.00;;;2.00;;
76846;SDS011;65813;49.546;8.644;2023-04-03T04:33:18;4.77;;;2.20;;
76846;SDS011;65813;49.546;8.644;2023-04-03T04:37:19;4.55;;;2.10;;
76846;SDS011;65813;49.546;8.644;2023-04-03T04:41:22;4.38;;;2.15;;
76846;SDS011;65813;49.546;8.644;2023-04-03T04:45:22;5.88;;;2.25;;
76846;SDS011;65813;49.546;8.644;2023-04-03T04:49:23;4.47;;;2.37;;
76846;SDS011;65813;49.546;8.644;2023-04-03T04:53:23;5.07;;;2.20;;
76846;SDS011;65813;49.546;8.644;2023-04-03T04:57:23;7.07;;;2.40;;
76846;SDS011;65813;49.546;8.644;2023-04-03T05:01:24;3.90;;;2.43;;
76846;SDS011;65813;49.546;8.644;2023-04-03T05:05:24;5.90;;;2.20;;
76846;SDS011;65813;49.546;8.644;2023-04-03T05:09:25;4.20;;;2.20;;
76846;SDS011;65813;49.546;8.644;2023-04-03T05:13:25;3.95;;;2.33;;
76846;SDS011;65813;49.546;8.644;2023-04-03T05:17:25;5.77;;;2.40;;
76846;SDS011;65813;49.546;8.644;2023-04-03T05:21:26;4.77;;;2.23;;
76846;SDS011;65813;49.546;8.644;2023-04-03T05:25:29;4.57;;;2.20;;
76846;SDS011;65813;49.546;8.644;2023-04-03T05:29:30;5.55;;;2.40;;
76846;SDS011;65813;49.546;8.644;2023-04-03T05:33:30;5.68;;;2.35;;
76846;SDS011;65813;49.546;8.644;2023-04-03T05:37:30;4.27;;;2.37;;
76846;SDS011;65813;49.546;8.644;2023-04-03T05:41:31;4.63;;;2.60;;
76846;SDS011;65813;49.546;8.644;2023-04-03T05:45:31;5.67;;;2.77;;
76846;SDS011;65813;49.546;8.644;2023-04-03T05:49:31;6.33;;;2.80;;
76846;SDS011;65813;49.546;8.644;2023-04-03T05:53:33;6.57;;;2.67;;
76846;SDS011;65813;49.546;8.644;2023-04-03T05:57:37;5.60;;;2.40;;
76846;SDS011;65813;49.546;8.644;2023-04-03T06:01:37;4.67;;;2.50;;
76846;SDS011;65813;49.546;8.644;2023-04-03T06:05:37;4.13;;;2.40;;
76846;SDS011;65813;49.546;8.644;2023-04-03T06:09:38;4.97;;;2.67;;
76846;SDS011;65813;49.546;8.644;2023-04-03T06:13:38;4.47;;;2.70;;
76846;SDS011;65813;49.546;8.644;2023-04-03T06:17:40;5.13;;;2.25;;
76846;SDS011;65813;49.546;8.644;2023-04-03T06:21:40;4.87;;;2.70;;
76846;SDS011;65813;49.546;8.644;2023-04-03T06:25:41;5.00;;;2.10;;
76846;SDS011;65813;49.546;8.644;2023-04-03T06:29:42;3.42;;;2.00;;
76846;SDS011;65813;49.546;8.644;2023-04-03T06:33:43;4.72;;;2.30;;
76846;SDS011;65813;49.546;8.644;2023-04-03T06:37:43;6.23;;;2.27;;
76846;SDS011;65813;49.546;8.644;2023-04-03T06:41:43;6.57;;;2.30;;
76846;SDS011;65813;49.546;8.644;2023-04-03T06:45:44;6.93;;;2.30;;
76846;SDS011;65813;49.546;8.644;2023-04-03T06:49:45;5.50;;;2.55;;
76846;SDS011;65813;49.546;8.644;2023-04-03T06:53:45;5.40;;;2.10;;
76846;SDS011;65813;49.546;8.644;2023-04-03T06:57:50;4.38;;;2.13;;
76846;SDS011;65813;49.546;8.644;2023-04-03T07:01:50;4.20;;;2.07;;
76846;SDS011;65813;49.546;8.644;2023-04-03T07:05:51;3.95;;;2.10;;
76846;SDS011;65813;49.546;8.644;2023-04-03T07:09:51;5.77;;;2.47;;
76846;SDS011;65813;49.546;8.644;2023-04-03T07:13:53;4.90;;;2.20;;
76846;SDS011;65813;49.546;8.644;2023-04-03T07:17:53;4.53;;;2.25;;
76846;SDS011;65813;49.546;8.644;2023-04-03T07:21:54;4.20;;;1.90;;
76846;SDS011;65813;49.546;8.644;2023-04-03T07:25:55;5.78;;;2.15;;
76846;SDS011;65813;49.546;8.644;2023-04-03T07:29:55;4.55;;;2.33;;
76846;SDS011;65813;49.546;8.644;2023-04-03T07:33:56;4.95;;;2.70;;
76846;SDS011;65813;49.546;8.644;2023-04-03T07:37:56;4.90;;;2.20;;
76846;SDS011;65813;49.546;8.644;2023-04-03T07:41:56;4.80;;;2.20;;
76846;SDS011;65813;49.546;8.644;2023-04-03T07:45:57;5.30;;;2.30;;
76846;SDS011;65813;49.546;8.644;2023-04-03T07:49:57;4.63;;;2.17;;
76846;SDS011;65813;49.546;8.644;2023-04-03T07:53:57;4.57;;;1.90;;
76846;SDS011;65813;49.546;8.644;2023-04-03T07:57:58;5.95;;;1.90;;
76846;SDS011;65813;49.546;8.644;2023-04-03T08:01:58;4.30;;;1.70;;
76846;SDS011;65813;49.546;8.644;2023-04-03T08:06:03;4.05;;;1.88;;
76846;SDS011;65813;49.546;8.644;2023-04-03T08:10:05;3.67;;;1.73;;
76846;SDS011;65813;49.546;8.644;2023-04-03T08:14:05;6.07;;;1.70;;
76846;SDS011;65813;49.546;8.644;2023-04-03T08:18:07;3.00;;;1.63;;
76846;SDS011;65813;49.546;8.644;2023-04-03T08:22:07;2.90;;;1.47;;
76846;SDS011;65813;49.546;8.644;2023-04-03T08:26:09;5.33;;;1.53;;
76846;SDS011;65813;49.546;8.644;2023-04-03T08:30:11;3.33;;;1.48;;
76846;SDS011;65813;49.546;8.644;2023-04-03T08:34:12;4.32;;;1.50;;
76846;SDS011;65813;49.546;8.644;2023-04-03T08:38:14;2.55;;;1.30;;
76846;SDS011;65813;49.546;8.644;2023-04-03T08:42:16;3.80;;;1.50;;
76846;SDS011;65813;49.546;8.644;2023-04-03T08:46:18;2.78;;;1.10;;
76846;SDS011;65813;49.546;8.644;2023-04-03T08:50:25;4.38;;;1.30;;
76846;SDS011;65813;49.546;8.644;2023-04-03T08:54:35;3.35;;;1.30;;
76846;SDS011;65813;49.546;8.644;2023-04-03T08:59:00;4.82;;;1.40;;
76846;SDS011;65813;49.546;8.644;2023-04-03T09:03:14;4.28;;;1.35;;
76846;SDS011;65813;49.546;8.644;2023-04-03T09:07:20;3.30;;;1.98;;
76846;SDS011;65813;49.546;8.644;2023-04-03T09:11:26;3.38;;;1.25;;
76846;SDS011;65813;49.546;8.644;2023-04-03T09:15:36;3.40;;;1.50;;
76846;SDS011;65813;49.546;8.644;2023-04-03T09:23:53;3.40;;;1.20;;
76846;SDS011;65813;49.546;8.644;2023-04-03T09:27:58;3.45;;;1.50;;
76846;SDS011;65813;49.546;8.644;2023-04-03T09:32:00;3.67;;;1.27;;
76846;SDS011;65813;49.546;8.644;2023-04-03T09:36:02;3.10;;;1.15;;
76846;SDS011;65813;49.546;8.644;2023-04-03T09:40:03;3.03;;;1.10;;
76846;SDS011;65813;49.546;8.644;2023-04-03T09:44:17;3.25;;;1.30;;
76846;SDS011;65813;49.546;8.644;2023-04-03T09:48:22;2.25;;;1.10;;
76846;SDS011;65813;49.546;8.644;2023-04-03T09:52:25;3.67;;;1.20;;
76846;SDS011;65813;49.546;8.644;2023-04-03T09:56:29;2.40;;;1.10;;
76846;SDS011;65813;49.546;8.644;2023-04-03T10:00:31;2.20;;;1.20;;
76846;SDS011;65813;49.546;8.644;2023-04-03T10:04:39;4.65;;;1.30;;
76846;SDS011;65813;49.546;8.644;2023-04-03T10:08:40;2.42;;;1.10;;
76846;SDS011;65813;49.546;8.644;2023-04-03T10:12:41;2.13;;;1.30;;
76846;SDS011;65813;49.546;8.644;2023-04-03T10:16:41;3.43;;;1.40;;
76846;SDS011;65813;49.546;8.644;2023-04-03T10:20:48;2.33;;;1.42;;
76846;SDS011;65813;49.546;8.644;2023-04-03T10:37:56;2.65;;;1.20;;
76846;SDS011;65813;49.546;8.644;2023-04-03T10:42:09;2.95;;;1.30;;
76846;SDS011;65813;49.546;8.644;2023-04-03T10:46:15;4.60;;;1.48;;
76846;SDS011;65813;49.546;8.644;2023-04-03T10:50:26;3.05;;;1.30;;
76846;SDS011;65813;49.546;8.644;2023-04-03T10:54:38;1.80;;;1.00;;
76846;SDS011;65813;49.546;8.644;2023-04-03T10:58:47;2.72;;;1.50;;
76846;SDS011;65813;49.546;8.644;2023-04-03T11:02:55;2.45;;;1.17;;
76846;SDS011;65813;49.546;8.644;2023-04-03T11:07:00;3.45;;;1.30;;
76846;SDS011;65813;49.546;8.644;2023-04-03T11:11:05;3.20;;;1.38;;
76846;SDS011;65813;49.546;8.644;2023-04-03T11:15:13;4.72;;;1.30;;
76846;SDS011;65813;49.546;8.644;2023-04-03T11:19:20;3.22;;;1.20;;
76846;SDS011;65813;49.546;8.644;2023-04-03T11:23:24;3.63;;;1.10;;
76846;SDS011;65813;49.546;8.644;2023-04-03T11:27:26;3.67;;;1.20;;
76846;SDS011;65813;49.546;8.644;2023-04-03T11:35:45;3.53;;;1.23;;
76846;SDS011;65813;49.546;8.644;2023-04-03T11:39:50;3.85;;;1.42;;
76846;SDS011;65813;49.546;8.644;2023-04-03T11:44:00;3.30;;;1.33;;
76846;SDS011;65813;49.546;8.644;2023-04-03T11:48:04;2.95;;;1.40;;
76846;SDS011;65813;49.546;8.644;2023-04-03T11:56:40;3.13;;;1.38;;
76846;SDS011;65813;49.546;8.644;2023-04-03T12:04:44;3.45;;;1.50;;
76846;SDS011;65813;49.546;8.644;2023-04-03T12:09:27;2.67;;;1.40;;
76846;SDS011;65813;49.546;8.644;2023-04-03T12:17:50;3.67;;;1.45;;
76846;SDS011;65813;49.546;8.644;2023-04-03T12:26:04;2.92;;;1.42;;
76846;SDS011;65813;49.546;8.644;2023-04-03T12:30:21;2.95;;;1.33;;
76846;SDS011;65813;49.546;8.644;2023-04-03T12:47:51;2.90;;;1.33;;
76846;SDS011;65813;49.546;8.644;2023-04-03T12:51:54;3.60;;;1.42;;
76846;SDS011;65813;49.546;8.644;2023-04-03T12:55:55;3.55;;;1.48;;
76846;SDS011;65813;49.546;8.644;2023-04-03T12:59:57;4.18;;;1.67;;
76846;SDS011;65813;49.546;8.644;2023-04-03T13:03:58;4.45;;;1.35;;
76846;SDS011;65813;49.546;8.644;2023-04-03T13:07:59;3.13;;;1.30;;
76846;SDS011;65813;49.546;8.644;2023-04-03T13:12:09;2.42;;;1.25;;
76846;SDS011;65813;49.546;8.644;2023-04-03T13:16:11;3.30;;;1.40;;
76846;SDS011;65813;49.546;8.644;2023-04-03T13:20:17;4.28;;;1.35;;
76846;SDS011;65813;49.546;8.644;2023-04-03T13:24:20;2.42;;;1.30;;
76846;SDS011;65813;49.546;8.644;2023-04-03T13:28:22;3.40;;;1.60;;
76846;SDS011;65813;49.546;8.644;2023-04-03T13:32:24;2.60;;;1.30;;
76846;SDS011;65813;49.546;8.644;2023-04-03T13:36:37;5.35;;;1.77;;
76846;SDS011;65813;49.546;8.644;2023-04-03T13:40:50;3.92;;;1.55;;
76846;SDS011;65813;49.546;8.644;2023-04-03T13:53:41;3.63;;;1.33;;
76846;SDS011;65813;49.546;8.644;2023-04-03T13:57:58;3.20;;;1.27;;
76846;SDS011;65813;49.546;8.644;2023-04-03T14:06:09;3.23;;;1.30;;
76846;SDS011;65813;49.546;8.644;2023-04-03T14:10:15;3.67;;;1.33;;
76846;SDS011;65813;49.546;8.644;2023-04-03T14:14:19;2.80;;;1.23;;
76846;SDS011;65813;49.546;8.644;2023-04-03T14:18:22;3.28;;;1.40;;
76846;SDS011;65813;49.546;8.644;2023-04-03T14:22:32;4.68;;;1.48;;
76846;SDS011;65813;49.546;8.644;2023-04-03T14:26:33;4.18;;;1.50;;
76846;SDS011;65813;49.546;8.644;2023-04-03T14:30:34;3.53;;;1.30;;
76846;SDS011;65813;49.546;8.644;2023-04-03T14:34:35;3.75;;;1.50;;
76846;SDS011;65813;49.546;8.644;2023-04-03T14:38:35;2.93;;;1.23;;
76846;SDS011;65813;49.546;8.644;2023-04-03T14:42:36;3.83;;;1.67;;
76846;SDS011;65813;49.546;8.644;2023-04-03T14:46:38;2.55;;;1.20;;
76846;SDS011;65813;49.546;8.644;2023-04-03T14:50:42;4.07;;;1.55;;
76846;SDS011;65813;49.546;8.644;2023-04-03T14:54:42;3.93;;;1.40;;
76846;SDS011;65813;49.546;8.644;2023-04-03T14:58:42;3.07;;;1.47;;
76846;SDS011;65813;49.546;8.644;2023-04-03T15:02:43;3.30;;;1.30;;
76846;SDS011;65813;49.546;8.644;2023-04-03T15:06:45;2.35;;;1.10;;
76846;SDS011;65813;49.546;8.644;2023-04-03T15:10:47;4.40;;;1.15;;
76846;SDS011;65813;49.546;8.644;2023-04-03T15:14:48;2.97;;;1.13;;
76846;SDS011;65813;49.546;8.644;2023-04-03T15:18:49;3.97;;;1.23;;
76846;SDS011;65813;49.546;8.644;2023-04-03T15:22:50;3.90;;;1.37;;
76846;SDS011;65813;49.546;8.644;2023-04-03T15:26:50;6.15;;;2.05;;
76846;SDS011;65813;49.546;8.644;2023-04-03T15:30:50;3.00;;;1.20;;
76846;SDS011;65813;49.546;8.644;2023-04-03T15:34:51;1.70;;;1.02;;
76846;SDS011;65813;49.546;8.644;2023-04-03T15:38:51;3.13;;;1.30;;
76846;SDS011;65813;49.546;8.644;2023-04-03T15:42:51;6.03;;;1.20;;
76846;SDS011;65813;49.546;8.644;2023-04-03T15:46:52;2.60;;;1.33;;
76846;SDS011;65813;49.546;8.644;2023-04-03T15:50:52;3.03;;;1.10;;
76846;SDS011;65813;49.546;8.644;2023-04-03T15:54:53;2.20;;;1.10;;
76846;SDS011;65813;49.546;8.644;2023-04-03T15:58:57;3.07;;;1.20;;
76846;SDS011;65813;49.546;8.644;2023-04-03T16:03:21;3.47;;;1.10;;
76846;SDS011;65813;49.546;8.644;2023-04-03T16:07:24;2.40;;;1.10;;
76846;SDS011;65813;49.546;8.644;2023-04-03T16:11:24;3.33;;;1.40;;
76846;SDS011;65813;49.546;8.644;2023-04-03T16:15:26;3.22;;;1.27;;
76846;SDS011;65813;49.546;8.644;2023-04-03T16:19:27;2.78;;;1.50;;
76846;SDS011;65813;49.546;8.644;2023-04-03T16:23:28;3.25;;;1.20;;
76846;SDS011;65813;49.546;8.644;2023-04-03T16:27:29;3.65;;;1.20;;
76846;SDS011;65813;49.546;8.644;2023-04-03T16:31:31;2.83;;;1.25;;
76846;SDS011;65813;49.546;8.644;2023-04-03T16:35:32;4.57;;;1.33;;
76846;SDS011;65813;49.546;8.644;2023-04-03T16:39:33;2.53;;;1.17;;
76846;SDS011;65813;49.546;8.644;2023-04-03T16:43:42;3.43;;;1.23;;
76846;SDS011;65813;49.546;8.644;2023-04-03T16:47:42;3.08;;;1.20;;
76846;SDS011;65813;49.546;8.644;2023-04-03T16:51:43;3.20;;;1.25;;
76846;SDS011;65813;49.546;8.644;2023-04-03T16:55:43;3.25;;;1.30;;
76846;SDS011;65813;49.546;8.644;2023-04-03T16:59:44;2.17;;;1.00;;
76846;SDS011;65813;49.546;8.644;2023-04-03T17:03:44;2.53;;;1.10;;
76846;SDS011;65813;49.546;8.644;2023-04-03T17:07:45;3.78;;;1.30;;
76846;SDS011;65813;49.546;8.644;2023-04-03T17:11:45;3.50;;;1.50;;
76846;SDS011;65813;49.546;8.644;2023-04-03T17:15:46;4.35;;;1.40;;
76846;SDS011;65813;49.546;8.644;2023-04-03T17:19:46;3.38;;;1.40;;
76846;SDS011;65813;49.546;8.644;2023-04-03T17:23:49;3.85;;;1.50;;
76846;SDS011;65813;49.546;8.644;2023-04-03T17:27:52;4.50;;;1.40;;
76846;SDS011;65813;49.546;8.644;2023-04-03T17:31:52;3.60;;;1.30;;
76846;SDS011;65813;49.546;8.644;2023-04-03T17:35:55;7.28;;;1.50;;
76846;SDS011;65813;49.546;8.644;2023-04-03T17:39:56;3.00;;;1.20;;
76846;SDS011;65813;49.546;8.644;2023-04-03T17:43:56;5.80;;;2.03;;
76846;SDS011;65813;49.546;8.644;2023-04-03T17:47:57;4.10;;;1.67;;
76846;SDS011;65813;49.546;8.644;2023-04-03T17:51:57;3.10;;;1.50;;
76846;SDS011;65813;49.546;8.644;2023-04-03T17:55:58;4.60;;;1.67;;
76846;SDS011;65813;49.546;8.644;2023-04-03T17:59:58;4.20;;;1.83;;
76846;SDS011;65813;49.546;8.644;2023-04-03T18:04:00;5.50;;;1.90;;
76846;SDS011;65813;49.546;8.644;2023-04-03T18:08:01;3.55;;;1.40;;
76846;SDS011;65813;49.546;8.644;2023-04-03T18:12:03;3.70;;;1.75;;
76846;SDS011;65813;49.546;8.644;2023-04-03T18:16:06;3.30;;;1.77;;
76846;SDS011;65813;49.546;8.644;2023-04-03T18:20:07;3.63;;;1.73;;
76846;SDS011;65813;49.546;8.644;2023-04-03T18:24:11;4.28;;;1.80;;
76846;SDS011;65813;49.546;8.644;2023-04-03T18:28:13;3.53;;;1.60;;
76846;SDS011;65813;49.546;8.644;2023-04-03T18:32:14;5.65;;;2.15;;
76846;SDS011;65813;49.546;8.644;2023-04-03T18:36:16;5.90;;;1.98;;
76846;SDS011;65813;49.546;8.644;2023-04-03T18:40:16;4.67;;;1.97;;
76846;SDS011;65813;49.546;8.644;2023-04-03T18:44:18;3.22;;;1.77;;
76846;SDS011;65813;49.546;8.644;2023-04-03T18:52:23;5.50;;;1.83;;
76846;SDS011;65813;49.546;8.644;2023-04-03T18:56:26;6.03;;;1.90;;
76846;SDS011;65813;49.546;8.644;2023-04-03T19:00:27;5.43;;;2.03;;
76846;SDS011;65813;49.546;8.644;2023-04-03T19:04:27;4.53;;;2.10;;
76846;SDS011;65813;49.546;8.644;2023-04-03T19:08:28;5.85;;;2.20;;
76846;SDS011;65813;49.546;8.644;2023-04-03T19:12:29;4.07;;;1.58;;
76846;SDS011;65813;49.546;8.644;2023-04-03T19:16:34;3.97;;;1.60;;
76846;SDS011;65813;49.546;8.644;2023-04-03T19:20:34;5.00;;;1.87;;
76846;SDS011;65813;49.546;8.644;2023-04-03T19:24:35;5.85;;;1.95;;
76846;SDS011;65813;49.546;8.644;2023-04-03T19:28:36;2.95;;;1.40;;
76846;SDS011;65813;49.546;8.644;2023-04-03T19:32:37;3.10;;;1.23;;
76846;SDS011;65813;49.546;8.644;2023-04-03T19:36:37;2.97;;;1.33;;
76846;SDS011;65813;49.546;8.644;2023-04-03T19:40:38;6.88;;;1.58;;
76846;SDS011;65813;49.546;8.644;2023-04-03T19:44:42;3.05;;;1.40;;
76846;SDS011;65813;49.546;8.644;2023-04-03T19:48:44;2.42;;;1.23;;
76846;SDS011;65813;49.546;8.644;2023-04-03T19:52:46;3.47;;;1.52;;
76846;SDS011;65813;49.546;8.644;2023-04-03T19:56:46;2.63;;;1.27;;
76846;SDS011;65813;49.546;8.644;2023-04-03T20:00:47;4.18;;;1.40;;
76846;SDS011;65813;49.546;8.644;2023-04-03T20:04:47;5.07;;;1.33;;
76846;SDS011;65813;49.546;8.644;2023-04-03T20:08:48;3.22;;;1.30;;
76846;SDS011;65813;49.546;8.644;2023-04-03T20:12:48;1.95;;;1.05;;
76846;SDS011;65813;49.546;8.644;2023-04-03T20:16:49;3.00;;;1.20;;
76846;SDS011;65813;49.546;8.644;2023-04-03T20:20:53;1.73;;;1.03;;
76846;SDS011;65813;49.546;8.644;2023-04-03T20:24:55;3.55;;;1.50;;
76846;SDS011;65813;49.546;8.644;2023-04-03T20:28:56;3.13;;;1.10;;
76846;SDS011;65813;49.546;8.644;2023-04-03T20:32:57;4.88;;;1.40;;
76846;SDS011;65813;49.546;8.644;2023-04-03T20:36:58;3.43;;;1.43;;
76846;SDS011;65813;49.546;8.644;2023-04-03T20:40:58;5.37;;;1.30;;
76846;SDS011;65813;49.546;8.644;2023-04-03T20:44:59;2.45;;;1.20;;
76846;SDS011;65813;49.546;8.644;2023-04-03T20:48:59;3.20;;;1.47;;
76846;SDS011;65813;49.546;8.644;2023-04-03T20:57:10;2.72;;;1.35;;
76846;SDS011;65813;49.546;8.644;2023-04-03T21:01:12;3.38;;;1.45;;
76846;SDS011;65813;49.546;8.644;2023-04-03T21:05:14;3.97;;;1.10;;
